Ashland, Wisconsin
Current Conditions -  °F | °C
As of 5:53 AM on Saturday 25 Oct 2014 (Local Time) from KASX Reporting Station
Clear Clear  
Wind Chill: 44°   Ceiling: Unl
Heat Index: 48°   Visibility: 10mi
Dew Point: 36°   Wind: 8mph
Humidity: 63%   Direction: 240°WSW
Pressure: 29.83"   Gusts: NA
Location:  46.59°N, 90.89°W
Report Text: KASX 251053Z AUTO 24007KT 10SM CLR 09/02 A2983 RMK AO2 SLP105 T00890022
Loading
Personal Weather Stations






























Interactive Weather Map
Tropical Storm Tracking
New forecast layout! Learn more

10-Day Weather Forecast

Advertisements
Track Severe Weather on mobile